createdAt,value
2023-03-12T00:01:34.554Z,13.47
2023-03-12T00:04:02.674Z,13.46
2023-03-12T00:06:29.959Z,13.41
2023-03-12T00:08:57.533Z,13.39
2023-03-12T00:11:24.653Z,13.37
2023-03-12T00:13:52.961Z,13.34
2023-03-12T00:16:20.377Z,13.28
2023-03-12T00:18:52.441Z,13.23
2023-03-12T00:21:20.607Z,13.23
2023-03-12T00:23:51.270Z,13.25
2023-03-12T00:26:19.667Z,13.23
2023-03-12T00:28:48.097Z,13.19
2023-03-12T00:31:18.100Z,13.18
2023-03-12T00:33:45.772Z,13.16
2023-03-12T00:36:12.951Z,13.10
2023-03-12T00:38:39.781Z,13.09
2023-03-12T00:41:06.650Z,13.09
2023-03-12T00:43:33.527Z,13.06
2023-03-12T00:46:00.529Z,13.04
2023-03-12T00:48:27.490Z,13.03
2023-03-12T00:50:54.300Z,13.04
2023-03-12T00:53:21.415Z,13.02
2023-03-12T00:55:48.489Z,13.01
2023-03-12T00:58:15.249Z,12.99
2023-03-12T01:00:42.265Z,12.96
2023-03-12T01:03:08.957Z,12.97
2023-03-12T01:05:37.950Z,12.96
2023-03-12T01:08:05.554Z,12.92
2023-03-12T01:10:32.309Z,12.93
2023-03-12T01:12:59.438Z,12.92
2023-03-12T01:15:26.646Z,12.89
2023-03-12T01:17:53.388Z,12.88
2023-03-12T01:20:20.401Z,12.85
2023-03-12T01:22:47.139Z,12.85
2023-03-12T01:25:14.104Z,12.83
2023-03-12T01:27:40.769Z,12.83
2023-03-12T01:30:08.405Z,12.83
2023-03-12T01:32:35.478Z,12.80
2023-03-12T01:35:02.272Z,12.80
2023-03-12T01:37:29.090Z,12.77
2023-03-12T01:39:55.730Z,12.77
2023-03-12T01:42:22.734Z,12.77
2023-03-12T01:44:50.276Z,12.74
2023-03-12T01:47:17.059Z,12.72
2023-03-12T01:49:45.285Z,12.68
2023-03-12T01:52:18.738Z,12.67
2023-03-12T01:54:58.664Z,12.69
2023-03-12T01:57:38.240Z,12.71
2023-03-12T02:00:13.891Z,12.68
2023-03-12T02:02:44.227Z,12.68
2023-03-12T02:05:43.730Z,12.67
2023-03-12T02:08:11.362Z,12.64
2023-03-12T02:10:38.300Z,12.60
2023-03-12T02:13:05.947Z,12.58
2023-03-12T02:15:34.801Z,12.57
2023-03-12T02:18:09.606Z,12.59
2023-03-12T02:21:18.402Z,12.58
2023-03-12T02:45:35.682Z,12.48
2023-03-12T02:48:03.477Z,12.45
2023-03-12T02:50:30.354Z,12.40
2023-03-12T02:52:57.154Z,12.42
2023-03-12T02:55:24.049Z,12.40
2023-03-12T02:57:50.778Z,12.38
2023-03-12T03:00:18.323Z,12.42
2023-03-12T03:02:49.569Z,12.43
2023-03-12T03:05:16.699Z,12.42
2023-03-12T03:07:43.308Z,12.36
2023-03-12T03:10:10.660Z,12.36
2023-03-12T03:12:37.572Z,12.37
2023-03-12T03:15:06.406Z,12.35
2023-03-12T03:17:33.377Z,12.35
2023-03-12T03:20:00.343Z,12.35
2023-03-12T03:22:27.066Z,12.34
2023-03-12T03:24:54.742Z,12.33
2023-03-12T03:27:21.683Z,12.30
2023-03-12T03:32:16.308Z,12.31
2023-03-12T03:34:43.238Z,12.27
2023-03-12T03:37:10.081Z,12.29
2023-03-12T03:39:36.889Z,12.24
2023-03-12T03:42:03.925Z,12.24
2023-03-12T03:44:32.840Z,12.26
2023-03-12T03:47:00.472Z,12.23
2023-03-12T03:49:27.198Z,12.22
2023-03-12T03:51:54.097Z,12.25
2023-03-12T03:54:29.657Z,12.22
2023-03-12T03:56:56.620Z,12.20
2023-03-12T03:59:23.425Z,12.18
2023-03-12T04:01:50.233Z,12.19
2023-03-12T04:04:17.238Z,12.18
2023-03-12T04:06:44.236Z,12.19
2023-03-12T04:09:11.234Z,12.18
2023-03-12T04:11:40.313Z,12.15
2023-03-12T04:14:08.529Z,12.16
2023-03-12T04:16:37.789Z,12.17
2023-03-12T04:19:05.029Z,12.19
2023-03-12T04:21:32.064Z,12.16
2023-03-12T04:23:58.952Z,12.12
2023-03-12T04:26:30.156Z,12.14
2023-03-12T04:28:57.295Z,12.15
2023-03-12T04:31:24.416Z,12.11
2023-03-12T04:33:51.438Z,12.12
2023-03-12T04:36:20.970Z,12.07
2023-03-12T04:38:49.178Z,12.08
2023-03-12T04:41:18.052Z,12.07
2023-03-12T04:43:56.484Z,12.05
2023-03-12T04:46:23.448Z,12.04
2023-03-12T04:48:50.799Z,12.02
2023-03-12T04:51:18.057Z,11.98
2023-03-12T04:53:45.062Z,11.99
2023-03-12T04:56:13.273Z,12.01
2023-03-12T04:58:41.497Z,11.98
2023-03-12T05:01:08.378Z,11.99
2023-03-12T05:03:35.404Z,11.99
2023-03-12T05:06:04.000Z,11.97
2023-03-12T05:08:30.859Z,11.96
2023-03-12T05:10:57.422Z,11.93
2023-03-12T05:13:25.364Z,11.91
2023-03-12T05:15:55.808Z,11.94
2023-03-12T05:18:22.855Z,11.93
2023-03-12T05:21:14.772Z,11.91
2023-03-12T05:23:43.206Z,11.93
2023-03-12T05:26:26.023Z,11.94
2023-03-12T05:28:59.798Z,11.91
2023-03-12T05:31:32.958Z,11.93
2023-03-12T05:34:01.451Z,11.90
2023-03-12T05:36:28.503Z,11.91
2023-03-12T05:38:56.131Z,11.90
2023-03-12T05:41:28.269Z,11.90
2023-03-12T05:43:59.329Z,11.87
2023-03-12T05:46:28.511Z,11.86
2023-03-12T05:48:55.617Z,11.86
2023-03-12T05:51:22.706Z,11.84
2023-03-12T05:53:50.451Z,11.84
2023-03-12T05:56:19.387Z,11.85
2023-03-12T05:58:48.793Z,11.84
2023-03-12T06:01:23.410Z,11.83
2023-03-12T06:03:51.570Z,11.85
2023-03-12T06:06:19.317Z,11.81
2023-03-12T06:08:46.657Z,11.78
2023-03-12T06:11:13.937Z,11.79
2023-03-12T06:13:41.381Z,11.79
2023-03-12T06:16:12.678Z,11.78
2023-03-12T06:18:39.728Z,11.77
2023-03-12T06:21:12.411Z,11.76
2023-03-12T06:23:40.926Z,11.74
2023-03-12T06:26:12.112Z,11.75
2023-03-12T06:28:39.184Z,11.76
2023-03-12T06:31:07.228Z,11.74
2023-03-12T06:33:34.962Z,11.73
2023-03-12T06:36:04.433Z,11.73
2023-03-12T06:38:31.137Z,11.73
2023-03-12T06:41:00.417Z,11.73
2023-03-12T06:43:29.157Z,11.72
2023-03-12T06:45:57.242Z,11.71
2023-03-12T06:48:25.807Z,11.71
2023-03-12T06:50:53.111Z,11.71
2023-03-12T06:53:20.736Z,11.68
2023-03-12T06:55:49.976Z,11.69
2023-03-12T06:58:17.065Z,11.67
2023-03-12T07:00:44.065Z,11.67
2023-03-12T07:03:10.948Z,11.69
2023-03-12T07:05:37.820Z,11.69
2023-03-12T07:08:05.012Z,11.69
2023-03-12T07:10:31.916Z,11.68
2023-03-12T07:12:58.780Z,11.66
2023-03-12T07:15:45.198Z,11.66
2023-03-12T07:18:12.251Z,11.68
2023-03-12T07:20:41.996Z,11.65
2023-03-12T07:23:09.162Z,11.63
2023-03-12T07:25:41.427Z,11.65
2023-03-12T07:28:09.311Z,11.65
2023-03-12T07:30:36.859Z,11.65
2023-03-12T07:33:06.590Z,11.64
2023-03-12T07:35:33.940Z,11.64
2023-03-12T07:38:01.801Z,11.63
2023-03-12T07:40:29.221Z,11.62
2023-03-12T07:42:56.057Z,11.62
2023-03-12T07:45:23.085Z,11.62
2023-03-12T07:47:50.281Z,11.60
2023-03-12T07:50:18.577Z,11.62
2023-03-12T07:52:46.869Z,11.71
2023-03-12T07:55:13.975Z,11.66
2023-03-12T07:57:41.541Z,11.62
2023-03-12T08:00:10.901Z,11.61
2023-03-12T08:02:40.605Z,11.60
2023-03-12T08:05:08.133Z,11.59
2023-03-12T08:07:35.858Z,11.60
2023-03-12T08:10:05.684Z,11.58
2023-03-12T08:12:32.439Z,11.60
2023-03-12T08:14:59.216Z,11.58
2023-03-12T08:17:26.541Z,11.57
2023-03-12T08:19:53.159Z,11.57
2023-03-12T08:22:19.998Z,11.58
2023-03-12T08:24:46.856Z,11.57
2023-03-12T08:27:14.388Z,11.55
2023-03-12T08:29:41.458Z,11.54
2023-03-12T08:32:10.806Z,11.55
2023-03-12T08:34:37.813Z,11.54
2023-03-12T08:37:04.826Z,11.53
2023-03-12T08:39:32.275Z,11.53
2023-03-12T08:41:59.035Z,11.53
2023-03-12T08:44:26.787Z,11.53
2023-03-12T08:46:53.819Z,11.52
2023-03-12T08:49:21.351Z,11.53
2023-03-12T08:51:48.679Z,11.51
2023-03-12T08:54:15.375Z,11.50
2023-03-12T08:56:43.649Z,11.50
2023-03-12T08:59:11.267Z,11.52
2023-03-12T09:01:39.324Z,11.49
2023-03-12T09:04:06.960Z,11.50
2023-03-12T09:06:35.444Z,11.53
2023-03-12T09:09:05.674Z,11.47
2023-03-12T09:11:34.230Z,11.45
2023-03-12T09:14:42.449Z,11.44
2023-03-12T09:16:51.291Z,11.45
2023-03-12T09:19:17.888Z,11.44
2023-03-12T09:21:44.610Z,11.44
2023-03-12T09:24:12.042Z,11.45
2023-03-12T09:26:38.754Z,11.43
2023-03-12T09:29:05.606Z,11.42
2023-03-12T09:31:32.427Z,11.42
2023-03-12T09:33:59.132Z,11.41
2023-03-12T09:36:26.139Z,11.41
2023-03-12T09:38:52.936Z,11.41
2023-03-12T09:41:28.982Z,11.39
2023-03-12T09:44:01.771Z,11.41
2023-03-12T09:46:36.203Z,11.39
2023-03-12T09:49:11.434Z,11.39
2023-03-12T09:51:43.456Z,11.39
2023-03-12T09:54:24.787Z,11.38
2023-03-12T09:56:53.563Z,11.39
2023-03-12T09:59:20.301Z,11.37
2023-03-12T10:01:58.345Z,11.37
2023-03-12T10:04:58.097Z,11.36
2023-03-12T10:07:50.574Z,11.37
2023-03-12T10:10:50.049Z,11.39
2023-03-12T10:13:42.784Z,11.38
2023-03-12T10:16:41.333Z,11.35
2023-03-12T10:19:13.507Z,11.36
2023-03-12T10:21:54.987Z,11.38
2023-03-12T10:25:00.363Z,11.39
2023-03-12T10:27:30.019Z,11.38
2023-03-12T10:29:58.262Z,11.37
2023-03-12T10:32:40.683Z,11.37
2023-03-12T10:35:18.495Z,11.39
2023-03-12T10:37:50.420Z,11.38
2023-03-12T10:40:30.468Z,11.41
2023-03-12T10:42:57.774Z,11.40
2023-03-12T10:45:45.871Z,11.43
2023-03-12T10:48:23.773Z,11.43
2023-03-12T10:51:16.847Z,11.42
2023-03-12T10:53:48.514Z,11.44
2023-03-12T10:56:18.091Z,11.42
2023-03-12T10:58:46.015Z,11.42
2023-03-12T11:01:25.746Z,11.40
2023-03-12T11:03:54.043Z,11.43
2023-03-12T11:06:26.314Z,11.43
2023-03-12T11:09:16.071Z,11.43
2023-03-12T11:11:45.317Z,11.42
2023-03-12T11:14:24.567Z,11.43
2023-03-12T11:16:52.580Z,11.43
2023-03-12T11:19:33.114Z,11.44
2023-03-12T11:22:05.625Z,11.47
2023-03-12T11:24:32.422Z,11.53
2023-03-12T11:27:08.182Z,11.61
2023-03-12T11:29:40.390Z,11.66
2023-03-12T11:32:31.198Z,11.69
2023-03-12T11:35:16.707Z,11.79
2023-03-12T11:38:08.389Z,11.96
2023-03-12T11:40:56.652Z,12.06
2023-03-12T11:43:43.767Z,12.17
2023-03-12T11:46:17.302Z,12.28
2023-03-12T11:49:04.595Z,12.42
2023-03-12T11:51:43.468Z,12.74
2023-03-12T11:54:28.712Z,12.93
2023-03-12T11:57:30.687Z,13.14
2023-03-12T12:00:18.130Z,13.33
2023-03-12T12:02:50.620Z,13.44
2023-03-12T12:05:40.970Z,13.50
2023-03-12T12:08:29.111Z,13.54
2023-03-12T12:11:21.603Z,13.66
2023-03-12T12:14:04.141Z,13.47
2023-03-12T12:16:42.593Z,13.42
2023-03-12T12:19:20.525Z,13.38
2023-03-12T12:22:01.966Z,13.47
2023-03-12T12:24:53.463Z,13.42
2023-03-12T12:27:29.093Z,13.48
2023-03-12T12:30:18.403Z,13.49
2023-03-12T12:33:02.159Z,13.54
2023-03-12T12:35:36.996Z,13.50
2023-03-12T12:38:06.898Z,13.54
2023-03-12T12:40:41.002Z,13.60
2023-03-12T12:43:30.425Z,13.56
2023-03-12T12:46:02.193Z,13.64
2023-03-12T12:48:37.970Z,13.61
2023-03-12T12:51:09.025Z,13.68
2023-03-12T12:53:41.807Z,13.75
2023-03-12T12:56:30.061Z,13.74
2023-03-12T12:59:28.363Z,13.70
2023-03-12T13:01:57.133Z,13.75
2023-03-12T13:04:39.520Z,13.81
2023-03-12T13:07:12.266Z,13.87
2023-03-12T13:09:44.584Z,13.91
2023-03-12T13:12:13.414Z,13.88
2023-03-12T13:14:43.310Z,13.89
2023-03-12T13:17:35.836Z,13.91
2023-03-12T13:20:12.039Z,13.89
2023-03-12T13:22:49.635Z,13.92
2023-03-12T13:25:22.267Z,13.96
2023-03-12T13:27:58.582Z,13.99
2023-03-12T13:30:34.436Z,13.98
2023-03-12T13:33:03.958Z,14.00
2023-03-12T13:35:36.917Z,14.01
2023-03-12T13:38:06.749Z,14.03
2023-03-12T13:40:53.506Z,14.06
2023-03-12T13:43:42.693Z,14.08
2023-03-12T13:46:15.293Z,14.04
2023-03-12T13:48:47.756Z,14.09
2023-03-12T13:51:20.904Z,14.12
2023-03-12T13:53:52.818Z,14.24
2023-03-12T13:56:25.136Z,14.33
2023-03-12T13:59:01.770Z,14.48
2023-03-12T14:01:37.752Z,14.52
2023-03-12T14:04:12.209Z,14.62
2023-03-12T14:07:43.752Z,14.69
2023-03-12T14:10:25.343Z,14.78
2023-03-12T14:13:07.392Z,14.79
2023-03-12T14:15:59.515Z,14.89
2023-03-12T14:18:30.744Z,14.91
2023-03-12T14:21:06.930Z,15.00
2023-03-12T14:23:40.032Z,15.00
2023-03-12T14:26:09.559Z,14.79
2023-03-12T14:28:40.255Z,14.65
2023-03-12T14:31:17.961Z,14.52
2023-03-12T14:33:58.804Z,14.46
2023-03-12T14:36:37.397Z,14.49
2023-03-12T14:39:21.978Z,14.45
2023-03-12T14:41:57.474Z,14.39
2023-03-12T14:44:26.444Z,14.43
2023-03-12T14:47:11.213Z,14.42
2023-03-12T14:49:46.160Z,14.43
2023-03-12T14:52:20.674Z,14.41
2023-03-12T14:55:12.377Z,14.39
2023-03-12T14:57:39.313Z,14.45
2023-03-12T15:00:14.419Z,14.49
2023-03-12T15:02:42.379Z,14.46
2023-03-12T15:05:18.500Z,14.43
2023-03-12T15:07:46.291Z,14.45
2023-03-12T15:10:25.252Z,14.49
2023-03-12T15:12:56.999Z,14.47
2023-03-12T15:15:32.225Z,14.55
2023-03-12T15:17:59.413Z,14.55
2023-03-12T15:20:26.973Z,14.61
2023-03-12T15:22:54.136Z,14.62
2023-03-12T15:25:34.230Z,14.64
2023-03-12T15:28:05.012Z,14.63
2023-03-12T15:30:33.420Z,14.65
2023-03-12T15:33:11.934Z,14.68
2023-03-12T15:35:58.031Z,14.68
2023-03-12T15:38:25.706Z,14.70
2023-03-12T15:40:56.069Z,14.67
2023-03-12T15:43:25.151Z,14.71
2023-03-12T15:46:00.879Z,14.73
2023-03-12T15:48:32.015Z,14.72
2023-03-12T15:50:59.725Z,14.79
2023-03-12T15:53:31.070Z,14.78
2023-03-12T15:56:22.115Z,14.72
2023-03-12T15:59:00.918Z,14.76
2023-03-12T16:01:28.264Z,14.75
2023-03-12T16:03:55.205Z,14.80
2023-03-12T16:06:25.428Z,14.78
2023-03-12T16:08:56.370Z,14.80
2023-03-12T16:11:29.098Z,14.83
2023-03-12T16:14:10.536Z,14.86
2023-03-12T16:16:37.625Z,14.88
2023-03-12T16:19:11.294Z,14.84
2023-03-12T16:21:38.055Z,14.88
2023-03-12T16:24:04.996Z,14.93
2023-03-12T16:26:35.233Z,15.10
2023-03-12T16:29:02.194Z,15.17
2023-03-12T16:31:29.190Z,15.17
2023-03-12T16:33:55.994Z,15.21
2023-03-12T16:36:22.827Z,15.23
2023-03-12T16:38:49.831Z,15.30
2023-03-12T16:41:18.555Z,15.35
2023-03-12T16:43:49.975Z,15.33
2023-03-12T16:46:20.483Z,15.26
2023-03-12T16:48:53.619Z,15.30
2023-03-12T16:51:20.800Z,15.30
2023-03-12T16:53:58.508Z,15.33
2023-03-12T16:56:32.453Z,15.35
2023-03-12T16:59:03.256Z,15.35
2023-03-12T17:01:30.577Z,15.35
2023-03-12T17:03:57.714Z,15.35
2023-03-12T17:06:26.543Z,15.38
2023-03-12T17:08:54.406Z,15.46
2023-03-12T17:11:28.053Z,15.45
2023-03-12T17:13:58.730Z,15.48
2023-03-12T17:16:26.223Z,15.55
2023-03-12T17:18:53.267Z,15.58
2023-03-12T17:21:20.912Z,15.62
2023-03-12T17:23:50.462Z,15.61
2023-03-12T17:26:18.701Z,15.61
2023-03-12T17:28:45.451Z,15.56
2023-03-12T17:31:12.271Z,15.65
2023-03-12T17:33:39.407Z,15.66
2023-03-12T17:36:08.539Z,15.65
2023-03-12T17:38:35.734Z,15.61
2023-03-12T17:41:04.680Z,15.64
2023-03-12T17:43:34.936Z,15.69
2023-03-12T17:46:09.840Z,15.67
2023-03-12T17:48:36.595Z,15.65
2023-03-12T17:51:08.054Z,15.65
2023-03-12T17:53:35.048Z,15.81
2023-03-12T17:56:02.296Z,15.86
2023-03-12T17:58:29.170Z,15.94
2023-03-12T18:00:59.035Z,16.02
2023-03-12T18:03:25.938Z,16.03
2023-03-12T18:05:52.615Z,16.04
2023-03-12T18:08:19.272Z,16.03
2023-03-12T18:10:46.040Z,15.91
2023-03-12T18:13:12.632Z,15.87
2023-03-12T18:15:39.660Z,15.93
2023-03-12T18:18:06.652Z,15.91
2023-03-12T18:20:39.077Z,15.82
2023-03-12T18:23:06.574Z,15.82
2023-03-12T18:25:33.655Z,15.80
2023-03-12T18:28:00.513Z,15.83
2023-03-12T18:30:28.363Z,15.81
2023-03-12T18:32:55.321Z,15.80
2023-03-12T18:35:22.938Z,15.81
2023-03-12T18:37:51.888Z,15.80
2023-03-12T18:40:18.621Z,15.78
2023-03-12T18:42:45.507Z,15.79
2023-03-12T18:45:12.599Z,15.78
2023-03-12T18:47:39.612Z,15.79
2023-03-12T18:50:08.810Z,15.82
2023-03-12T18:52:35.708Z,15.82
2023-03-12T18:55:02.756Z,15.80
2023-03-12T18:57:29.365Z,15.80
2023-03-12T18:59:56.495Z,15.84
2023-03-12T19:02:23.820Z,15.79
2023-03-12T19:04:56.157Z,15.79
2023-03-12T19:07:23.156Z,15.78
2023-03-12T19:09:50.428Z,15.80
2023-03-12T19:12:17.240Z,15.78
2023-03-12T19:14:44.080Z,15.80
2023-03-12T19:17:10.701Z,15.82
2023-03-12T19:19:37.490Z,15.82
2023-03-12T19:22:04.754Z,15.86
2023-03-12T19:24:31.719Z,15.86
2023-03-12T19:26:58.520Z,15.91
2023-03-12T19:29:25.249Z,15.96
2023-03-12T19:31:52.110Z,16.09
2023-03-12T19:34:19.963Z,16.10
2023-03-12T19:36:46.626Z,16.13
2023-03-12T19:39:21.066Z,16.18
2023-03-12T19:41:48.925Z,16.17
2023-03-12T19:44:15.753Z,16.18
2023-03-12T19:46:43.269Z,16.18
2023-03-12T19:49:10.346Z,16.14
2023-03-12T19:51:40.348Z,16.14
2023-03-12T19:54:07.740Z,16.05
2023-03-12T19:56:34.674Z,16.03
2023-03-12T19:59:01.428Z,16.06
2023-03-12T20:01:28.096Z,15.97
2023-03-12T20:03:54.837Z,15.85
2023-03-12T20:06:21.670Z,15.79
2023-03-12T20:08:49.201Z,15.84
2023-03-12T20:11:16.124Z,15.80
2023-03-12T20:13:42.899Z,15.78
2023-03-12T20:16:12.527Z,15.77
2023-03-12T20:18:39.471Z,15.77
2023-03-12T20:21:06.295Z,15.78
2023-03-12T20:23:33.177Z,15.65
2023-03-12T20:26:00.107Z,15.50
2023-03-12T20:28:27.032Z,15.40
2023-03-12T20:30:53.765Z,15.32
2023-03-12T20:33:20.516Z,15.26
2023-03-12T20:35:50.160Z,15.19
2023-03-12T20:38:17.158Z,15.17
2023-03-12T20:40:46.799Z,15.11
2023-03-12T20:43:13.591Z,15.05
2023-03-12T20:45:40.593Z,15.02
2023-03-12T20:48:07.692Z,14.96
2023-03-12T20:50:37.530Z,14.93
2023-03-12T20:53:04.241Z,14.90
2023-03-12T20:55:30.943Z,14.84
2023-03-12T20:57:57.687Z,14.81
2023-03-12T21:00:24.392Z,14.75
2023-03-12T21:02:51.058Z,14.75
2023-03-12T21:05:17.876Z,14.70
2023-03-12T21:07:44.754Z,14.65
2023-03-12T21:10:11.984Z,14.64
2023-03-12T21:12:39.731Z,14.60
2023-03-12T21:15:10.808Z,14.55
2023-03-12T21:17:39.248Z,14.53
2023-03-12T21:20:17.332Z,14.54
2023-03-12T21:22:44.608Z,14.48
2023-03-12T21:25:11.752Z,14.48
2023-03-12T21:27:49.832Z,14.45
2023-03-12T21:30:20.737Z,14.40
2023-03-12T21:32:47.489Z,14.37
2023-03-12T21:35:14.162Z,14.36
2023-03-12T21:37:40.808Z,14.34
2023-03-12T21:40:09.056Z,14.33
2023-03-12T21:42:35.898Z,14.26
2023-03-12T21:45:02.654Z,14.25
2023-03-12T21:47:29.544Z,14.21
2023-03-12T21:49:56.451Z,14.22
2023-03-12T21:52:23.246Z,14.18
2023-03-12T21:54:50.302Z,14.17
2023-03-12T21:57:17.156Z,14.14
2023-03-12T21:59:44.010Z,14.12
2023-03-12T22:02:16.673Z,14.10
2023-03-12T22:04:43.333Z,14.11
2023-03-12T22:07:10.271Z,14.09
2023-03-12T22:09:37.130Z,14.07
2023-03-12T22:12:04.178Z,14.06
2023-03-12T22:14:30.862Z,14.01
2023-03-12T22:16:57.493Z,14.01
2023-03-12T22:19:24.426Z,13.99
2023-03-12T22:21:51.094Z,13.97
2023-03-12T22:24:17.732Z,13.98
2023-03-12T22:26:46.172Z,13.94
2023-03-12T22:29:13.161Z,13.96
2023-03-12T22:31:41.512Z,13.92
2023-03-12T22:34:08.919Z,13.92
2023-03-12T22:36:37.985Z,13.88
2023-03-12T22:39:23.230Z,13.89
2023-03-12T22:41:53.642Z,13.87
2023-03-12T22:44:20.456Z,13.85
2023-03-12T22:46:47.504Z,13.82
2023-03-12T22:49:15.462Z,13.80
2023-03-12T22:51:42.249Z,13.80
2023-03-12T22:54:09.057Z,13.79
2023-03-12T22:56:35.896Z,13.76
2023-03-12T22:59:02.642Z,13.75
2023-03-12T23:01:29.486Z,13.73
2023-03-12T23:03:56.298Z,13.70
2023-03-12T23:06:25.403Z,13.69
2023-03-12T23:08:52.763Z,13.70
2023-03-12T23:11:20.836Z,13.65
2023-03-12T23:13:49.800Z,13.67
2023-03-12T23:16:22.298Z,13.65
2023-03-12T23:18:49.314Z,13.59
2023-03-12T23:21:19.146Z,13.60
2023-03-12T23:23:46.397Z,13.60
2023-03-12T23:26:22.809Z,13.59
2023-03-12T23:28:53.199Z,13.57
2023-03-12T23:31:20.722Z,13.56
2023-03-12T23:33:47.651Z,13.55
2023-03-12T23:36:19.714Z,13.54
2023-03-12T23:38:48.376Z,13.54
2023-03-12T23:41:20.948Z,13.52
2023-03-12T23:43:48.578Z,13.51
2023-03-12T23:46:16.995Z,13.49
2023-03-12T23:48:44.286Z,13.49
2023-03-12T23:51:10.850Z,13.46
2023-03-12T23:53:38.929Z,13.46
2023-03-12T23:56:09.425Z,13.46
2023-03-12T23:58:36.573Z,13.45
